Time;durP1;ratioP1;P1;durP2;ratioP2;P2;SDS_P1;SDS_P2;PMS_P1;PMS_P2;Temp;Humidity;BMP_temperature;BMP_pressure;BME280_temperature;BME280_humidity;BME280_pressure;Samples;Min_cycle;Max_cycle;Signal;HPM_P1;HPM_P2
2022/05/03 00:02:23;;;;;;;;;;;10.90;95.10;;;;;;5040782;28;19925;-77
2022/05/03 00:04:56;;;;;;;;;;;10.90;94.80;;;;;;5059916;28;19920;-77
2022/05/03 00:07:26;;;;;;;;;;;10.80;95.20;;;;;;5045897;28;20179;-77
2022/05/03 00:10:00;;;;;;;;;;;10.80;95.30;;;;;;5049520;28;19931;-78
2022/05/03 00:12:30;;;;;;;;;;;10.70;95.30;;;;;;5054802;28;19924;-77
2022/05/03 00:15:00;;;;;;;;;;;10.70;95.10;;;;;;5054687;28;19975;-78
2022/05/03 00:17:27;;;;;;;;;;;10.60;95.50;;;;;;5049826;28;20473;-77
2022/05/03 00:19:54;;;;;;;;;;;10.60;95.60;;;;;;5051917;28;19931;-77
2022/05/03 00:22:21;;;;;;;;;;;10.50;95.40;;;;;;5047839;28;19984;-77
2022/05/03 00:24:48;;;;;;;;;;;10.50;95.40;;;;;;5040769;28;19928;-77
2022/05/03 00:27:15;;;;;;;;;;;10.40;95.90;;;;;;5046258;28;19950;-77
2022/05/03 00:29:42;;;;;;;;;;;10.40;96.00;;;;;;5047472;28;19925;-78
2022/05/03 00:32:10;;;;;;;;;;;10.40;95.80;;;;;;5044025;28;19925;-78
2022/05/03 00:34:38;;;;;;;;;;;10.30;95.70;;;;;;5038828;28;20320;-78
2022/05/03 00:37:05;;;;;;;;;;;10.30;96.20;;;;;;5045652;28;20386;-78
2022/05/03 00:39:31;;;;;;;;;;;10.30;96.20;;;;;;5047892;28;19928;-78
2022/05/03 00:42:02;;;;;;;;;;;10.20;96.30;;;;;;5046227;28;19924;-78
2022/05/03 00:47:20;;;;;;;;;;;10.10;96.30;;;;;;5050425;28;20781;-78
2022/05/03 00:49:52;;;;;;;;;;;10.00;96.40;;;;;;5052193;28;19959;-78
2022/05/03 00:52:23;;;;;;;;;;;10.00;96.60;;;;;;5043276;28;20305;-78
2022/05/03 00:54:57;;;;;;;;;;;9.90;96.80;;;;;;5041519;28;19931;-78
2022/05/03 00:57:32;;;;;;;;;;;10.00;97.00;;;;;;5048052;28;20341;-78
2022/05/03 01:00:06;;;;;;;;;;;9.90;97.60;;;;;;5044582;28;19921;-78
2022/05/03 01:02:46;;;;;;;;;;;10.00;97.20;;;;;;5048355;28;19929;-77
2022/05/03 01:05:16;;;;;;;;;;;9.90;97.60;;;;;;5043325;28;20520;-77
2022/05/03 01:07:47;;;;;;;;;;;9.90;98.00;;;;;;5044845;28;19925;-78
2022/05/03 01:10:18;;;;;;;;;;;9.90;98.10;;;;;;5043309;28;20259;-78
2022/05/03 01:12:49;;;;;;;;;;;9.90;98.20;;;;;;5061981;28;19943;-77
2022/05/03 01:15:18;;;;;;;;;;;9.80;98.00;;;;;;5049868;28;19967;-77
2022/05/03 01:17:49;;;;;;;;;;;9.80;98.50;;;;;;5050417;28;19921;-78
2022/05/03 01:20:21;;;;;;;;;;;9.70;98.50;;;;;;5063803;28;19952;-78
2022/05/03 01:23:05;;;;;;;;;;;8.90;98.20;;;;;;5067611;28;19967;-78
2022/05/03 01:25:49;;;;;;;;;;;9.70;98.40;;;;;;5021613;28;19925;-78
2022/05/03 01:28:22;;;;;;;;;;;9.70;98.80;;;;;;5038462;28;19932;-78
2022/05/03 01:30:52;;;;;;;;;;;11.40;99.10;;;;;;5042516;28;19947;-78
2022/05/03 01:33:19;;;;;;;;;;;9.60;98.30;;;;;;5048319;28;19936;-78
2022/05/03 01:35:47;;;;;;;;;;;9.60;98.90;;;;;;5049648;28;20297;-78
2022/05/03 01:38:22;;;;;;;;;;;9.50;99.00;;;;;;5048394;28;19932;-78
2022/05/03 01:41:00;;;;;;;;;;;9.50;99.10;;;;;;5044402;28;20408;-78
2022/05/03 01:43:32;;;;;;;;;;;9.40;98.50;;;;;;5050581;28;19951;-77
2022/05/03 01:46:05;;;;;;;;;;;9.40;99.00;;;;;;5054496;28;19924;-77
2022/05/03 01:51:40;;;;;;;;;;;9.40;99.50;;;;;;5041334;28;20023;-78
2022/05/03 01:54:14;;;;;;;;;;;9.30;98.90;;;;;;5057887;28;19950;-77
2022/05/03 01:56:49;;;;;;;;;;;9.30;99.60;;;;;;5058428;28;20473;-77
2022/05/03 01:59:22;;;;;;;;;;;9.20;99.70;;;;;;5058877;28;19924;-77
2022/05/03 02:01:54;;;;;;;;;;;9.20;99.80;;;;;;5042367;28;19932;-78
2022/05/03 02:04:39;;;;;;;;;;;9.20;99.40;;;;;;5048391;28;19960;-77
2022/05/03 02:07:07;;;;;;;;;;;9.20;99.90;;;;;;5047155;28;19925;-77
2022/05/03 02:09:46;;;;;;;;;;;9.10;99.90;;;;;;5052798;28;19924;-78
2022/05/03 02:12:15;;;;;;;;;;;9.10;99.80;;;;;;5053263;28;20018;-78
2022/05/03 02:14:48;;;;;;;;;;;9.00;99.70;;;;;;5048545;28;20433;-78
2022/05/03 02:17:28;;;;;;;;;;;9.00;99.90;;;;;;5043878;28;19944;-78
2022/05/03 02:19:58;;;;;;;;;;;8.90;99.90;;;;;;5048402;28;20317;-77
2022/05/03 02:22:37;;;;;;;;;;;8.90;99.90;;;;;;5048966;28;20370;-77
2022/05/03 02:25:07;;;;;;;;;;;8.80;99.90;;;;;;5039493;28;19974;-77
2022/05/03 02:27:35;;;;;;;;;;;8.80;99.90;;;;;;5050332;28;19925;-78
2022/05/03 02:30:04;;;;;;;;;;;8.70;99.90;;;;;;5054397;28;20298;-77
2022/05/03 02:32:35;;;;;;;;;;;8.60;99.90;;;;;;5048648;28;20686;-78
2022/05/03 02:35:03;;;;;;;;;;;8.60;99.90;;;;;;5053259;28;20390;-78
2022/05/03 02:37:34;;;;;;;;;;;8.50;99.90;;;;;;5051252;28;20382;-78
2022/05/03 02:40:02;;;;;;;;;;;8.50;99.90;;;;;;5044042;28;19925;-77
2022/05/03 02:42:29;;;;;;;;;;;8.40;99.90;;;;;;5047358;28;20239;-78
2022/05/03 02:44:57;;;;;;;;;;;8.40;99.90;;;;;;5045714;28;19924;-78
2022/05/03 02:47:40;;;;;;;;;;;8.30;99.90;;;;;;5046894;28;20447;-77
2022/05/03 02:50:09;;;;;;;;;;;8.30;99.90;;;;;;5055044;28;19999;-78
2022/05/03 02:52:54;;;;;;;;;;;8.30;99.90;;;;;;5054269;28;19932;-77
2022/05/03 02:55:22;;;;;;;;;;;8.20;99.90;;;;;;5053162;28;19927;-78
2022/05/03 02:57:54;;;;;;;;;;;8.20;99.90;;;;;;5045443;28;19930;-77
2022/05/03 03:03:25;;;;;;;;;;;8.10;99.90;;;;;;5041932;28;20000;-77
2022/05/03 03:05:56;;;;;;;;;;;8.00;99.90;;;;;;5070061;22;20265;-75
2022/05/03 03:08:23;;;;;;;;;;;10.30;99.90;;;;;;5048233;28;19970;-75
2022/05/03 03:10:52;;;;;;;;;;;8.10;99.90;;;;;;5045380;28;19924;-75
2022/05/03 03:13:24;;;;;;;;;;;8.00;99.90;;;;;;5040351;28;19932;-75
2022/05/03 03:15:51;;;;;;;;;;;8.00;99.90;;;;;;5018748;28;20409;-75
2022/05/03 03:18:22;;;;;;;;;;;10.50;99.90;;;;;;5023861;28;19924;-75
2022/05/03 03:20:54;;;;;;;;;;;8.00;99.90;;;;;;5024060;28;19925;-75
2022/05/03 03:23:21;;;;;;;;;;;7.90;99.90;;;;;;5024510;28;20286;-74
2022/05/03 03:25:48;;;;;;;;;;;7.90;99.90;;;;;;5021473;28;19971;-74
2022/05/03 03:28:17;;;;;;;;;;;7.90;99.90;;;;;;5019740;28;19976;-75
2022/05/03 03:30:44;;;;;;;;;;;7.80;99.90;;;;;;5022924;28;19999;-74
2022/05/03 03:33:13;;;;;;;;;;;7.80;99.90;;;;;;5024400;28;19924;-73
2022/05/03 03:35:42;;;;;;;;;;;7.70;99.90;;;;;;5020139;28;19928;-73
2022/05/03 03:38:10;;;;;;;;;;;7.70;99.90;;;;;;5027202;28;20378;-74
2022/05/03 03:40:37;;;;;;;;;;;7.70;99.90;;;;;;5021369;28;19925;-73
2022/05/03 03:43:03;;;;;;;;;;;7.70;99.90;;;;;;5019628;28;19932;-74
2022/05/03 03:45:30;;;;;;;;;;;7.70;99.90;;;;;;5027525;28;19925;-74
2022/05/03 03:47:57;;;;;;;;;;;7.60;99.90;;;;;;5023838;28;19925;-74
2022/05/03 03:50:25;;;;;;;;;;;7.60;99.90;;;;;;5029038;28;20263;-74
2022/05/03 03:52:53;;;;;;;;;;;7.60;99.90;;;;;;5025286;28;20412;-73
2022/05/03 03:55:20;;;;;;;;;;;7.70;99.90;;;;;;5019171;28;19921;-73
2022/05/03 03:57:47;;;;;;;;;;;7.70;99.90;;;;;;5018338;28;19925;-74
2022/05/03 04:00:15;;;;;;;;;;;7.60;99.90;;;;;;5022602;28;19931;-74
2022/05/03 04:02:42;;;;;;;;;;;7.70;99.90;;;;;;5022762;28;19924;-74
2022/05/03 04:05:14;;;;;;;;;;;7.60;99.90;;;;;;5023188;28;19971;-73
2022/05/03 04:07:41;;;;;;;;;;;7.60;99.90;;;;;;5024074;28;20307;-74
2022/05/03 04:10:09;;;;;;;;;;;7.60;99.90;;;;;;5035831;28;19970;-74
2022/05/03 04:12:37;;;;;;;;;;;7.60;99.90;;;;;;5039087;28;19921;-73
2022/05/03 04:15:04;;;;;;;;;;;7.60;99.90;;;;;;5019983;28;19932;-74
2022/05/03 04:17:30;;;;;;;;;;;7.60;99.90;;;;;;5023524;28;20296;-75
2022/05/03 04:19:57;;;;;;;;;;;7.60;99.90;;;;;;5024492;28;19925;-74
2022/05/03 04:22:25;;;;;;;;;;;7.70;99.90;;;;;;5021076;28;20401;-75
2022/05/03 04:24:52;;;;;;;;;;;7.60;99.90;;;;;;5024379;28;20017;-74
2022/05/03 04:27:20;;;;;;;;;;;7.70;99.90;;;;;;5024277;28;20026;-73
2022/05/03 04:29:47;;;;;;;;;;;7.70;99.90;;;;;;5024876;28;19921;-74
2022/05/03 04:32:14;;;;;;;;;;;7.70;99.90;;;;;;5021832;28;20264;-73
2022/05/03 04:34:40;;;;;;;;;;;7.80;99.90;;;;;;5023260;28;19928;-74
2022/05/03 04:37:07;;;;;;;;;;;7.80;99.90;;;;;;5027232;28;20410;-74
2022/05/03 04:39:34;;;;;;;;;;;7.80;99.90;;;;;;5027892;28;19944;-74
2022/05/03 04:42:01;;;;;;;;;;;7.90;99.90;;;;;;5025075;28;20012;-74
2022/05/03 04:44:29;;;;;;;;;;;7.90;99.90;;;;;;5017817;28;19929;-74
2022/05/03 04:46:56;;;;;;;;;;;7.90;99.90;;;;;;5023405;28;20317;-74
2022/05/03 04:49:22;;;;;;;;;;;7.90;99.90;;;;;;5016481;28;19924;-75
2022/05/03 04:51:49;;;;;;;;;;;6.60;99.90;;;;;;5024135;28;19925;-73
2022/05/03 04:54:16;;;;;;;;;;;8.00;99.90;;;;;;5023657;28;19929;-74
2022/05/03 04:56:46;;;;;;;;;;;8.00;99.90;;;;;;5029589;28;19925;-74
2022/05/03 04:59:13;;;;;;;;;;;8.10;99.90;;;;;;5026963;28;19925;-74
2022/05/03 05:01:41;;;;;;;;;;;8.20;99.90;;;;;;5029560;28;20404;-74
2022/05/03 05:04:07;;;;;;;;;;;8.30;99.90;;;;;;5020656;28;20018;-75
2022/05/03 05:06:34;;;;;;;;;;;8.40;99.90;;;;;;5022788;28;20011;-75
2022/05/03 05:09:01;;;;;;;;;;;8.50;99.90;;;;;;5032429;28;19930;-74
2022/05/03 05:11:28;;;;;;;;;;;8.60;99.90;;;;;;5027903;28;19937;-74
2022/05/03 05:13:54;;;;;;;;;;;8.80;99.90;;;;;;5029775;28;19925;-75
2022/05/03 05:16:21;;;;;;;;;;;8.80;99.90;;;;;;5026640;28;19925;-75
2022/05/03 05:18:49;;;;;;;;;;;9.10;99.90;;;;;;5026514;28;19970;-75
2022/05/03 05:21:16;;;;;;;;;;;9.20;99.90;;;;;;5025941;28;20368;-75
2022/05/03 05:23:43;;;;;;;;;;;9.40;99.90;;;;;;5036766;28;19975;-75
2022/05/03 05:26:09;;;;;;;;;;;9.40;99.90;;;;;;5027641;28;19921;-75
2022/05/03 05:28:36;;;;;;;;;;;9.60;99.90;;;;;;5024736;28;20400;-75
2022/05/03 05:31:03;;;;;;;;;;;9.80;99.90;;;;;;5026610;28;19952;-75
2022/05/03 05:33:29;;;;;;;;;;;10.20;99.90;;;;;;5024761;28;20013;-75
2022/05/03 05:35:57;;;;;;;;;;;10.80;99.90;;;;;;5022882;28;19929;-75
2022/05/03 05:38:24;;;;;;;;;;;11.60;99.90;;;;;;5035943;28;19925;-74
2022/05/03 05:40:52;;;;;;;;;;;12.30;99.90;;;;;;5031283;28;19925;-75
2022/05/03 05:43:19;;;;;;;;;;;12.90;99.90;;;;;;5022982;28;19921;-75
2022/05/03 05:45:46;;;;;;;;;;;13.70;99.90;;;;;;5014955;28;19929;-75
2022/05/03 05:48:13;;;;;;;;;;;14.20;99.90;;;;;;5028837;28;19921;-75
2022/05/03 05:50:40;;;;;;;;;;;15.00;99.90;;;;;;5028182;28;20624;-75
2022/05/03 05:55:53;;;;;;;;;;;16.90;99.90;;;;;;5037815;28;20357;-75
2022/05/03 05:58:20;;;;;;;;;;;17.70;99.90;;;;;;5021087;28;20297;-75
2022/05/03 06:00:47;;;;;;;;;;;18.70;99.90;;;;;;5022225;28;19929;-75
2022/05/03 06:03:14;;;;;;;;;;;19.40;99.90;;;;;;5025368;28;20397;-74
2022/05/03 06:05:41;;;;;;;;;;;19.90;99.90;;;;;;5029725;28;20375;-73
2022/05/03 06:08:09;;;;;;;;;;;20.50;99.90;;;;;;5025148;28;19925;-75
2022/05/03 06:10:36;;;;;;;;;;;20.80;99.90;;;;;;5025418;28;19986;-74
2022/05/03 06:13:03;;;;;;;;;;;20.90;99.40;;;;;;5023894;28;20348;-74
2022/05/03 06:15:30;;;;;;;;;;;21.00;98.60;;;;;;5020589;28;19956;-75
2022/05/03 06:17:57;;;;;;;;;;;20.90;97.50;;;;;;5024057;28;20345;-74
2022/05/03 06:20:24;;;;;;;;;;;21.20;97.50;;;;;;5029869;28;19925;-74
2022/05/03 06:22:51;;;;;;;;;;;21.70;97.00;;;;;;5024350;28;19924;-75
2022/05/03 06:25:19;;;;;;;;;;;21.70;95.50;;;;;;5024263;28;20016;-75
2022/05/03 06:27:46;;;;;;;;;;;22.00;95.30;;;;;;5026712;28;19929;-76
2022/05/03 06:30:13;;;;;;;;;;;22.10;94.20;;;;;;5020294;28;19933;-75
2022/05/03 06:32:43;;;;;;;;;;;22.40;93.90;;;;;;5025642;28;19925;-74
2022/05/03 06:35:10;;;;;;;;;;;23.20;95.60;;;;;;5021643;28;20050;-74
2022/05/03 06:37:37;;;;;;;;;;;23.60;93.90;;;;;;5023167;28;19982;-74
2022/05/03 06:40:07;;;;;;;;;;;24.40;93.00;;;;;;5024962;28;19925;-74
2022/05/03 06:42:36;;;;;;;;;;;24.60;91.60;;;;;;5024147;28;19967;-74
2022/05/03 06:45:03;;;;;;;;;;;24.70;90.60;;;;;;5019063;28;20318;-74
2022/05/03 06:47:30;;;;;;;;;;;25.20;90.20;;;;;;5024621;28;20268;-74
2022/05/03 06:49:56;;;;;;;;;;;25.50;85.70;;;;;;5019542;28;19989;-75
2022/05/03 06:52:25;;;;;;;;;;;25.80;85.10;;;;;;5020726;28;19921;-74
2022/05/03 06:54:52;;;;;;;;;;;26.10;85.40;;;;;;5019565;28;20056;-76
2022/05/03 06:57:19;;;;;;;;;;;26.20;84.10;;;;;;5022045;28;19925;-74
2022/05/03 06:59:47;;;;;;;;;;;26.60;83.50;;;;;;5024884;28;19925;-75
2022/05/03 07:02:13;;;;;;;;;;;26.70;81.00;;;;;;5019880;28;19921;-75
2022/05/03 07:04:43;;;;;;;;;;;26.40;79.80;;;;;;5015118;28;20492;-75
2022/05/03 07:07:10;;;;;;;;;;;26.50;79.70;;;;;;5021969;28;20361;-75
2022/05/03 07:09:37;;;;;;;;;;;26.80;78.60;;;;;;5029276;28;19979;-75
2022/05/03 07:12:04;;;;;;;;;;;27.30;76.80;;;;;;5023962;28;19925;-74
2022/05/03 07:14:31;;;;;;;;;;;26.10;75.70;;;;;;5019494;28;19929;-74
2022/05/03 07:16:59;;;;;;;;;;;25.50;74.10;;;;;;5018806;28;19925;-74
2022/05/03 07:24:54;;;;;;;;;;;26.20;78.00;;;;;;5019957;28;19957;-75
2022/05/03 07:27:21;;;;;;;;;;;26.60;75.20;;;;;;5022945;28;19983;-76
2022/05/03 07:29:48;;;;;;;;;;;26.70;73.40;;;;;;5042268;28;19940;-74
2022/05/03 07:32:16;;;;;;;;;;;26.90;71.60;;;;;;5017199;28;20564;-76
2022/05/03 07:34:43;;;;;;;;;;;27.60;73.20;;;;;;5022551;28;19929;-75
2022/05/03 07:37:10;;;;;;;;;;;27.90;69.50;;;;;;5019467;28;19955;-75
2022/05/03 07:39:36;;;;;;;;;;;28.20;69.40;;;;;;5026567;28;19925;-75
2022/05/03 07:42:03;;;;;;;;;;;28.10;67.70;;;;;;5020680;28;20008;-75
2022/05/03 07:44:30;;;;;;;;;;;28.20;70.80;;;;;;5032077;28;20341;-76
2022/05/03 07:46:57;;;;;;;;;;;28.50;68.80;;;;;;5030330;28;20015;-75
2022/05/03 07:49:25;;;;;;;;;;;29.10;68.90;;;;;;5025220;28;20412;-74
2022/05/03 07:51:52;;;;;;;;;;;29.60;67.10;;;;;;5022332;28;19933;-76
2022/05/03 07:54:19;;;;;;;;;;;29.40;66.50;;;;;;5021878;28;19924;-75
2022/05/03 07:56:46;;;;;;;;;;;29.40;63.70;;;;;;5021665;28;19925;-75
2022/05/03 07:59:13;;;;;;;;;;;29.30;63.20;;;;;;5024442;28;20354;-75
2022/05/03 08:01:41;;;;;;;;;;;29.10;61.40;;;;;;5025101;28;19979;-75
2022/05/03 08:04:07;;;;;;;;;;;28.70;61.80;;;;;;5023416;28;20058;-75
2022/05/03 08:06:36;;;;;;;;;;;28.30;59.30;;;;;;5019153;28;20445;-75
2022/05/03 08:09:03;;;;;;;;;;;27.40;60.00;;;;;;5026318;28;20330;-75
2022/05/03 08:11:30;;;;;;;;;;;27.30;62.40;;;;;;5021669;28;19929;-75
2022/05/03 08:13:57;;;;;;;;;;;27.50;60.00;;;;;;5024782;28;19921;-74
2022/05/03 08:16:23;;;;;;;;;;;27.50;59.20;;;;;;5024967;28;19921;-75
2022/05/03 08:18:50;;;;;;;;;;;27.30;58.60;;;;;;5024656;28;20267;-74
2022/05/03 08:21:17;;;;;;;;;;;26.50;57.20;;;;;;5025126;28;19928;-74
2022/05/03 08:23:45;;;;;;;;;;;25.10;58.30;;;;;;5043164;28;19953;-75
2022/05/03 08:26:13;;;;;;;;;;;25.10;58.60;;;;;;5021684;28;19933;-74
2022/05/03 08:28:41;;;;;;;;;;;25.10;60.20;;;;;;5031233;28;19943;-74
2022/05/03 08:31:08;;;;;;;;;;;24.90;59.10;;;;;;5028726;28;19925;-74
2022/05/03 08:33:34;;;;;;;;;;;24.70;61.30;;;;;;5029283;28;20711;-74
2022/05/03 08:36:01;;;;;;;;;;;25.20;62.20;;;;;;5026022;28;19937;-74
2022/05/03 08:44:00;;;;;;;;;;;25.50;55.40;;;;;;5046274;28;19924;-74
2022/05/03 08:46:26;;;;;;;;;;;25.70;55.40;;;;;;5027102;28;19936;-74
2022/05/03 08:48:56;;;;;;;;;;;25.20;55.20;;;;;;5023528;28;19921;-74
2022/05/03 08:51:23;;;;;;;;;;;25.00;57.90;;;;;;5027346;28;20309;-74
2022/05/03 08:53:50;;;;;;;;;;;26.00;59.60;;;;;;5026299;28;19925;-74
2022/05/03 08:56:19;;;;;;;;;;;26.10;59.50;;;;;;5026039;28;20325;-74
2022/05/03 08:58:46;;;;;;;;;;;26.00;58.50;;;;;;5027998;28;20008;-74
2022/05/03 09:01:13;;;;;;;;;;;25.80;59.90;;;;;;5028820;28;19924;-75
2022/05/03 09:03:40;;;;;;;;;;;26.00;59.70;;;;;;5022094;28;19921;-75
2022/05/03 09:06:07;;;;;;;;;;;26.40;59.40;;;;;;5024853;28;19979;-74
2022/05/03 09:08:34;;;;;;;;;;;26.40;59.00;;;;;;5020238;28;19921;-75
2022/05/03 09:11:12;;;;;;;;;;;26.30;59.30;;;;;;5027815;28;19937;-74
2022/05/03 09:13:40;;;;;;;;;;;26.30;58.60;;;;;;5025862;28;19921;-75
2022/05/03 09:16:10;;;;;;;;;;;25.90;57.70;;;;;;5030690;28;19932;-75
2022/05/03 09:18:38;;;;;;;;;;;25.60;58.80;;;;;;5025624;28;19968;-74
2022/05/03 09:24:01;;;;;;;;;;;23.70;59.10;;;;;;5025743;28;20020;-75
2022/05/03 09:26:29;;;;;;;;;;;23.80;59.70;;;;;;5025454;28;19944;-75
2022/05/03 09:29:01;;;;;;;;;;;24.00;61.20;;;;;;5031584;28;20389;-74
2022/05/03 09:31:28;;;;;;;;;;;24.40;62.10;;;;;;5028739;28;19975;-75
2022/05/03 09:33:55;;;;;;;;;;;24.40;59.30;;;;;;5021724;28;20267;-75
2022/05/03 09:36:22;;;;;;;;;;;24.50;59.50;;;;;;5021691;28;20440;-74
2022/05/03 09:38:50;;;;;;;;;;;24.00;59.90;;;;;;5029063;28;20010;-74
2022/05/03 09:41:17;;;;;;;;;;;23.80;61.00;;;;;;5029602;28;19920;-75
2022/05/03 09:44:05;;;;;;;;;;;22.90;59.60;;;;;;5028047;28;19936;-75
2022/05/03 09:46:49;;;;;;;;;;;22.90;59.60;;;;;;5025443;28;19931;-74
2022/05/03 09:49:17;;;;;;;;;;;22.30;60.60;;;;;;5027452;28;20012;-74
2022/05/03 09:51:44;;;;;;;;;;;21.70;60.60;;;;;;5025953;28;19933;-74
2022/05/03 09:54:11;;;;;;;;;;;21.10;60.50;;;;;;5030406;28;19921;-74
2022/05/03 09:56:40;;;;;;;;;;;21.10;61.90;;;;;;5019077;28;19925;-74
2022/05/03 09:59:09;;;;;;;;;;;20.90;62.40;;;;;;5024024;28;19925;-74
2022/05/03 10:01:36;;;;;;;;;;;20.60;62.60;;;;;;5026033;28;19924;-74
2022/05/03 10:04:05;;;;;;;;;;;20.00;61.70;;;;;;5026364;28;20129;-74
2022/05/03 10:06:33;;;;;;;;;;;20.10;63.20;;;;;;5023047;28;19968;-74
2022/05/03 10:09:00;;;;;;;;;;;19.90;63.70;;;;;;5028769;28;20128;-74
2022/05/03 10:11:27;;;;;;;;;;;19.90;64.10;;;;;;5022959;28;19929;-74
2022/05/03 10:13:54;;;;;;;;;;;19.20;62.90;;;;;;5030178;28;19932;-73
2022/05/03 10:21:55;;;;;;;;;;;19.40;65.10;;;;;;5023992;28;19976;-74
2022/05/03 10:24:23;;;;;;;;;;;19.60;64.40;;;;;;5024597;28;19925;-74
2022/05/03 10:26:54;;;;;;;;;;;19.50;65.00;;;;;;5021381;28;20092;-73
2022/05/03 10:29:21;;;;;;;;;;;19.10;65.60;;;;;;5025740;28;19956;-74
2022/05/03 10:31:57;;;;;;;;;;;19.00;65.70;;;;;;5026471;28;19920;-74
2022/05/03 10:34:42;;;;;;;;;;;18.80;65.70;;;;;;5309226;22;19944;-77
2022/05/03 10:37:10;;;;;;;;;;;18.80;66.30;;;;;;5054561;28;19920;-76
2022/05/03 10:39:45;;;;;;;;;;;18.80;66.40;;;;;;5053343;28;19947;-78
2022/05/03 10:42:13;;;;;;;;;;;18.90;66.50;;;;;;5068996;28;19927;-78
2022/05/03 10:44:41;;;;;;;;;;;19.00;67.20;;;;;;5038773;28;19943;-78
2022/05/03 10:47:10;;;;;;;;;;;19.10;66.90;;;;;;5036812;28;20605;-77
2022/05/03 10:50:06;;;;;;;;;;;19.30;66.80;;;;;;5035969;28;19931;-77
2022/05/03 10:52:33;;;;;;;;;;;19.40;66.80;;;;;;5037221;28;19929;-77
2022/05/03 10:55:07;;;;;;;;;;;19.60;66.90;;;;;;5050710;28;19954;-78
2022/05/03 10:57:34;;;;;;;;;;;19.80;66.30;;;;;;5057360;28;19935;-78
2022/05/03 11:00:02;;;;;;;;;;;19.90;66.50;;;;;;5058497;28;19931;-78
2022/05/03 11:02:31;;;;;;;;;;;20.00;66.40;;;;;;5056368;28;19927;-78
2022/05/03 11:05:15;;;;;;;;;;;20.00;65.60;;;;;;5040616;28;19925;-77
2022/05/03 11:08:09;;;;;;;;;;;20.10;66.20;;;;;;5037629;28;19925;-75
2022/05/03 11:10:39;;;;;;;;;;;20.30;66.90;;;;;;5017793;28;19920;-78
2022/05/03 11:13:22;;;;;;;;;;;20.50;66.50;;;;;;5037355;28;20404;-77
2022/05/03 11:16:04;;;;;;;;;;;20.40;65.60;;;;;;5018010;28;20408;-77
2022/05/03 11:18:32;;;;;;;;;;;20.40;65.90;;;;;;5036960;28;19928;-78
2022/05/03 11:21:13;;;;;;;;;;;20.60;66.90;;;;;;5076814;28;20296;-78
2022/05/03 11:23:47;;;;;;;;;;;20.70;66.80;;;;;;5058216;28;19969;-77
2022/05/03 11:26:15;;;;;;;;;;;20.80;65.10;;;;;;5058319;28;20369;-78
2022/05/03 11:28:45;;;;;;;;;;;20.90;66.10;;;;;;5074192;28;19973;-79
2022/05/03 11:31:12;;;;;;;;;;;21.10;66.30;;;;;;5060250;28;19916;-78
2022/05/03 11:33:50;;;;;;;;;;;21.10;64.60;;;;;;5018655;28;20712;-78
2022/05/03 11:36:17;;;;;;;;;;;21.30;65.70;;;;;;5049649;28;19929;-77
2022/05/03 11:38:44;;;;;;;;;;;21.20;64.30;;;;;;5048612;28;19925;-77
2022/05/03 11:41:11;;;;;;;;;;;21.00;64.80;;;;;;5018694;28;20343;-77
2022/05/03 11:43:39;;;;;;;;;;;21.00;65.30;;;;;;5051227;28;20316;-78
2022/05/03 11:46:06;;;;;;;;;;;21.10;64.90;;;;;;5035842;28;19967;-78
2022/05/03 11:48:33;;;;;;;;;;;21.20;64.00;;;;;;5040249;28;20364;-77
2022/05/03 11:56:30;;;;;;;;;;;21.40;64.50;;;;;;5038065;28;20058;-78
2022/05/03 11:58:57;;;;;;;;;;;21.40;65.00;;;;;;5039914;28;20737;-78
2022/05/03 12:01:33;;;;;;;;;;;21.50;64.20;;;;;;5035925;28;19924;-78
2022/05/03 12:04:02;;;;;;;;;;;21.40;64.00;;;;;;5035007;28;19982;-78
2022/05/03 12:06:43;;;;;;;;;;;21.20;63.90;;;;;;5035715;28;20303;-78
2022/05/03 12:09:11;;;;;;;;;;;21.20;64.40;;;;;;5035757;28;19932;-77
2022/05/03 12:12:42;;;;;;;;;;;21.40;66.00;;;;;;5015085;28;19925;-78
2022/05/03 12:14:34;;;;;;;;;;;21.10;63.10;;;;;;5032777;28;20682;-77
2022/05/03 12:17:01;;;;;;;;;;;21.10;63.80;;;;;;5023321;28;20302;-77
2022/05/03 12:19:32;;;;;;;;;;;21.10;64.40;;;;;;5036008;28;19925;-78
2022/05/03 12:22:08;;;;;;;;;;;21.30;64.30;;;;;;5036743;28;20403;-78
2022/05/03 12:24:37;;;;;;;;;;;21.40;64.90;;;;;;5036387;28;19931;-79
2022/05/03 12:27:11;;;;;;;;;;;21.60;65.60;;;;;;5037675;28;19932;-79
2022/05/03 12:29:43;;;;;;;;;;;21.70;64.70;;;;;;5038174;28;19948;-79
2022/05/03 12:32:13;;;;;;;;;;;21.60;63.00;;;;;;5038991;28;19932;-79
2022/05/03 12:34:42;;;;;;;;;;;21.30;64.30;;;;;;5058570;28;20062;-79
2022/05/03 12:37:10;;;;;;;;;;;21.30;64.80;;;;;;5047295;28;19932;-80
2022/05/03 12:39:37;;;;;;;;;;;21.50;64.80;;;;;;5056773;28;20215;-80
2022/05/03 12:42:09;;;;;;;;;;;21.50;64.10;;;;;;5042261;28;19982;-80
2022/05/03 12:44:49;;;;;;;;;;;21.60;64.60;;;;;;5051147;28;19947;-81
2022/05/03 12:47:16;;;;;;;;;;;21.80;64.70;;;;;;5057575;28;19952;-81
2022/05/03 12:49:46;;;;;;;;;;;22.00;64.20;;;;;;5053458;28;19947;-81
2022/05/03 12:52:15;;;;;;;;;;;22.00;63.00;;;;;;5049542;28;19976;-80
2022/05/03 12:54:43;;;;;;;;;;;21.90;63.60;;;;;;5066706;28;19920;-81
2022/05/03 12:59:56;;;;;;;;;;;22.10;64.00;;;;;;5059747;28;20383;-80
2022/05/03 13:02:23;;;;;;;;;;;22.20;63.80;;;;;;5042366;28;20360;-81
2022/05/03 13:04:50;;;;;;;;;;;22.30;64.60;;;;;;5059525;28;19983;-81
2022/05/03 13:07:19;;;;;;;;;;;22.50;64.70;;;;;;5051805;28;19925;-83
2022/05/03 13:09:47;;;;;;;;;;;22.60;63.30;;;;;;5056234;28;19974;-85
2022/05/03 13:12:15;;;;;;;;;;;22.40;62.80;;;;;;5044597;28;19925;-85
2022/05/03 13:14:44;;;;;;;;;;;22.30;63.40;;;;;;5061361;28;19967;-85
2022/05/03 13:17:11;;;;;;;;;;;22.30;63.70;;;;;;5044082;28;19931;-84
2022/05/03 13:19:38;;;;;;;;;;;22.40;64.40;;;;;;5030972;28;19944;-85
2022/05/03 13:22:05;;;;;;;;;;;22.60;64.70;;;;;;5044607;28;19920;-85
2022/05/03 13:24:33;;;;;;;;;;;22.70;63.90;;;;;;5049144;28;19931;-85
2022/05/03 13:27:00;;;;;;;;;;;22.80;64.20;;;;;;5053402;28;19920;-85
2022/05/03 13:29:30;;;;;;;;;;;22.70;64.60;;;;;;5042149;28;20023;-86
2022/05/03 13:31:57;;;;;;;;;;;22.70;64.90;;;;;;5045443;28;19930;-85
2022/05/03 13:34:23;;;;;;;;;;;22.80;64.10;;;;;;5044193;28;19924;-84
2022/05/03 13:42:23;;;;;;;;;;;22.70;65.10;;;;;;5043585;28;19924;-84
2022/05/03 13:44:50;;;;;;;;;;;22.60;64.20;;;;;;5023511;28;20281;-84
2022/05/03 13:47:26;;;;;;;;;;;22.60;64.50;;;;;;5050061;28;19921;-84
2022/05/03 13:49:53;;;;;;;;;;;22.40;64.30;;;;;;5043162;28;19971;-84
2022/05/03 13:52:21;;;;;;;;;;;22.40;64.80;;;;;;5042159;28;19968;-84
2022/05/03 13:54:49;;;;;;;;;;;22.60;64.50;;;;;;5054190;28;19924;-83
2022/05/03 13:57:16;;;;;;;;;;;22.60;65.00;;;;;;5042558;28;19925;-83
2022/05/03 13:59:43;;;;;;;;;;;22.70;65.50;;;;;;5051563;28;20426;-80
2022/05/03 14:02:12;;;;;;;;;;;22.70;64.60;;;;;;5046493;28;20372;-81
2022/05/03 14:04:39;;;;;;;;;;;22.70;64.80;;;;;;5031679;28;19921;-81
2022/05/03 14:07:07;;;;;;;;;;;22.80;65.00;;;;;;5064460;28;19929;-81
2022/05/03 14:09:34;;;;;;;;;;;22.90;65.80;;;;;;5052607;28;19928;-81
2022/05/03 14:12:04;;;;;;;;;;;23.10;65.00;;;;;;5051223;28;19998;-81
2022/05/03 14:14:31;;;;;;;;;;;23.10;64.00;;;;;;5044189;28;19924;-81
2022/05/03 14:16:58;;;;;;;;;;;23.10;64.40;;;;;;5046839;28;19923;-81
2022/05/03 14:19:26;;;;;;;;;;;23.30;65.10;;;;;;5050594;28;19921;-81
2022/05/03 14:21:54;;;;;;;;;;;23.30;65.00;;;;;;5070049;28;19925;-81
2022/05/03 14:24:22;;;;;;;;;;;;;;;;;;5045849;28;19921;-80
2022/05/03 14:26:48;;;;;;;;;;;23.30;64.40;;;;;;5047977;28;19931;-80
2022/05/03 14:29:19;;;;;;;;;;;23.20;65.00;;;;;;5041906;28;20564;-80
2022/05/03 14:31:46;;;;;;;;;;;23.20;65.00;;;;;;5054909;28;19929;-80
2022/05/03 14:34:14;;;;;;;;;;;23.20;64.40;;;;;;5046714;28;20346;-83
2022/05/03 14:36:41;;;;;;;;;;;23.10;63.70;;;;;;5066265;28;19960;-81
2022/05/03 14:39:11;;;;;;;;;;;22.90;63.80;;;;;;5046400;28;19975;-81
2022/05/03 14:41:38;;;;;;;;;;;22.90;64.30;;;;;;5057266;28;19924;-82
2022/05/03 14:44:06;;;;;;;;;;;23.10;64.40;;;;;;5061330;28;19997;-79
2022/05/03 14:46:34;;;;;;;;;;;23.30;64.00;;;;;;5053757;28;20012;-81
2022/05/03 14:49:01;;;;;;;;;;;23.30;64.20;;;;;;5043903;28;19948;-80
2022/05/03 14:51:28;;;;;;;;;;;22.90;63.20;;;;;;5062936;28;19936;-79
2022/05/03 14:53:57;;;;;;;;;;;22.80;63.60;;;;;;5023676;28;20000;-83
2022/05/03 15:04:36;;;;;;;;;;;22.60;64.60;;;;;;5045745;28;19921;-79
2022/05/03 15:07:03;;;;;;;;;;;22.70;65.50;;;;;;5044315;28;19936;-80
2022/05/03 15:09:30;;;;;;;;;;;22.80;65.60;;;;;;5038113;28;20436;-79
2022/05/03 15:11:57;;;;;;;;;;;23.10;66.70;;;;;;5073419;28;19927;-76
2022/05/03 15:14:24;;;;;;;;;;;23.60;66.50;;;;;;5043858;28;20007;-79
2022/05/03 15:16:53;;;;;;;;;;;23.50;67.00;;;;;;5033139;28;20299;-80
2022/05/03 15:19:20;;;;;;;;;;;23.80;66.60;;;;;;5042352;28;20358;-79
2022/05/03 15:21:47;;;;;;;;;;;23.90;66.50;;;;;;5046653;28;19928;-80
2022/05/03 15:26:59;;;;;;;;;;;23.50;66.20;;;;;;5045696;28;19905;-80
2022/05/03 15:29:28;;;;;;;;;;;23.40;67.60;;;;;;5047770;28;20011;-79